Time;durP1;ratioP1;P1;durP2;ratioP2;P2;SDS_P1;SDS_P2;PMS_P1;PMS_P2;Temp;Humidity;BMP_temperature;BMP_pressure;BME280_temperature;BME280_humidity;BME280_pressure;Samples;Min_cycle;Max_cycle;Signal;HPM_P1;HPM_P2
2021/05/19 00:01:24;;;;;;;2.00;1.90;;;;;;;8.32;100.00;96713.09;5029681;28;20589;-67
2021/05/19 00:03:49;;;;;;;2.30;1.70;;;;;;;8.26;100.00;96706.06;5030231;28;20183;-66
2021/05/19 00:06:15;;;;;;;1.70;1.60;;;;;;;8.32;100.00;96706.06;5013077;28;20248;-66
2021/05/19 00:08:41;;;;;;;1.57;1.47;;;;;;;8.36;100.00;96709.03;5032121;28;20202;-66
2021/05/19 00:11:07;;;;;;;2.47;1.40;;;;;;;8.45;100.00;96709.56;5034150;28;20194;-66
2021/05/19 00:13:35;;;;;;;1.70;1.60;;;;;;;8.46;100.00;96717.19;5033357;28;20187;-66
2021/05/19 00:16:01;;;;;;;1.90;1.67;;;;;;;8.45;100.00;96714.78;5034240;28;20189;-66
2021/05/19 00:18:27;;;;;;;1.77;1.67;;;;;;;8.51;100.00;96716.56;5033359;28;20213;-67
2021/05/19 00:20:53;;;;;;;3.73;1.53;;;;;;;8.52;100.00;96715.53;5034150;28;20178;-66
2021/05/19 00:23:18;;;;;;;1.57;1.47;;;;;;;8.55;100.00;96722.94;5033251;28;20248;-66
2021/05/19 00:25:43;;;;;;;2.27;1.67;;;;;;;8.53;100.00;96715.31;5033001;28;20209;-66
2021/05/19 00:28:09;;;;;;;1.30;1.20;;;;;;;8.62;100.00;96719.25;5034105;28;20191;-66
2021/05/19 00:30:36;;;;;;;1.60;1.50;;;;;;;8.61;100.00;96715.03;5033421;28;20656;-66
2021/05/19 00:33:02;;;;;;;1.60;1.60;;;;;;;8.55;100.00;96715.09;5033914;28;20273;-66
2021/05/19 00:35:28;;;;;;;1.33;1.33;;;;;;;8.56;100.00;96719.31;5032730;28;20669;-67
2021/05/19 00:37:53;;;;;;;1.33;1.33;;;;;;;8.65;100.00;96723.25;5033546;28;20186;-66
2021/05/19 00:40:19;;;;;;;1.40;1.40;;;;;;;8.67;99.98;96724.63;5033399;28;20202;-66
2021/05/19 00:42:44;;;;;;;1.60;1.50;;;;;;;8.60;100.00;96715.25;5032590;28;20317;-66
2021/05/19 00:45:11;;;;;;;1.30;1.30;;;;;;;8.64;99.91;96716.41;5033373;28;20196;-66
2021/05/19 00:47:42;;;;;;;1.27;1.27;;;;;;;8.63;100.00;96717.44;5032513;28;20525;-66
2021/05/19 00:50:11;;;;;;;1.80;1.70;;;;;;;8.59;100.00;96713.66;5033307;28;20282;-67
2021/05/19 00:52:37;;;;;;;1.70;1.60;;;;;;;8.68;99.96;96712.38;5032990;28;20608;-66
2021/05/19 00:55:04;;;;;;;1.53;1.43;;;;;;;8.62;100.00;96715.84;5033204;28;20198;-66
2021/05/19 00:57:30;;;;;;;1.60;1.50;;;;;;;8.68;100.00;96715.00;5014988;28;20240;-66
2021/05/19 00:59:56;;;;;;;1.77;1.60;;;;;;;8.67;99.52;96716.78;5033549;28;20215;-66
2021/05/19 01:02:22;;;;;;;2.20;1.50;;;;;;;8.68;99.74;96715.00;5033234;28;20238;-66
2021/05/19 01:04:48;;;;;;;1.50;1.50;;;;;;;8.75;99.55;96715.69;5032262;28;20186;-66
2021/05/19 01:09:41;;;;;;;1.90;1.80;;;;;;;8.80;98.87;96720.31;5032437;28;20284;-66
2021/05/19 01:12:13;;;;;;;1.30;1.30;;;;;;;8.87;98.05;96721.00;5032954;28;20635;-66
2021/05/19 01:14:39;;;;;;;2.00;1.90;;;;;;;8.82;98.00;96713.03;5032099;28;20186;-67
2021/05/19 01:17:06;;;;;;;1.40;1.40;;;;;;;8.80;98.72;96713.25;5032712;28;20190;-66
2021/05/19 01:19:33;;;;;;;1.70;1.60;;;;;;;8.73;99.56;96708.09;5014275;28;20202;-67
2021/05/19 01:22:06;;;;;;;1.70;1.60;;;;;;;8.76;99.56;96714.69;5032459;28;20186;-66
2021/05/19 01:24:32;;;;;;;2.87;1.93;;;;;;;8.86;99.17;96708.97;5031344;28;20661;-66
2021/05/19 01:26:58;;;;;;;1.80;1.70;;;;;;;8.76;99.55;96712.88;5015318;28;20278;-65
2021/05/19 01:29:23;;;;;;;1.70;1.60;;;;;;;8.76;99.22;96707.66;5032233;28;20197;-65
2021/05/19 01:31:48;;;;;;;1.67;1.57;;;;;;;8.80;99.68;96702.81;5031971;28;20269;-66
2021/05/19 01:34:14;;;;;;;1.60;1.50;;;;;;;8.81;99.53;96707.00;5032400;28;20182;-65
2021/05/19 01:36:39;;;;;;;2.43;1.73;;;;;;;8.82;98.86;96708.59;5031768;28;20190;-66
2021/05/19 01:39:07;;;;;;;1.70;1.60;;;;;;;8.89;98.57;96708.53;5032436;28;20229;-65
2021/05/19 01:41:32;;;;;;;1.47;1.47;;;;;;;8.91;98.67;96709.13;5031874;28;20193;-66
2021/05/19 01:43:58;;;;;;;1.63;1.53;;;;;;;8.90;99.15;96695.25;5014799;28;20537;-65
2021/05/19 01:46:23;;;;;;;1.67;1.60;;;;;;;8.76;99.92;96704.22;5032029;28;20256;-65
2021/05/19 01:48:58;;;;;;;2.00;1.80;;;;;;;8.75;100.00;96706.03;5031534;28;20620;-65
2021/05/19 01:51:24;;;;;;;1.80;1.70;;;;;;;8.76;100.00;96702.44;5032666;28;20192;-65
2021/05/19 01:53:49;;;;;;;1.70;1.60;;;;;;;8.83;100.00;96712.81;5031589;28;20183;-65
2021/05/19 01:56:15;;;;;;;2.00;1.90;;;;;;;8.76;100.00;96702.44;5032066;28;20593;-65
2021/05/19 01:58:40;;;;;;;2.00;1.90;;;;;;;8.73;100.00;96707.28;5031336;28;20211;-66
2021/05/19 02:01:06;;;;;;;1.97;1.77;;;;;;;8.74;100.00;96707.09;5032406;28;20226;-66
2021/05/19 02:03:31;;;;;;;1.60;1.60;;;;;;;8.70;100.00;96705.91;5031377;28;20218;-66
2021/05/19 02:05:57;;;;;;;1.87;1.70;;;;;;;8.71;100.00;96710.13;5031894;28;20187;-66
2021/05/19 02:08:22;;;;;;;1.97;1.77;;;;;;;8.73;100.00;96709.91;5013718;28;20179;-67
2021/05/19 02:10:47;;;;;;;1.90;1.80;;;;;;;8.67;100.00;96711.56;5030906;28;20256;-65
2021/05/19 02:13:16;;;;;;;1.90;1.80;;;;;;;8.68;100.00;96707.16;5031996;28;20175;-66
2021/05/19 02:15:41;;;;;;;1.90;1.80;;;;;;;8.76;100.00;96709.47;5030105;28;20545;-68
2021/05/19 02:18:06;;;;;;;1.73;1.63;;;;;;;8.71;100.00;96711.94;5031650;28;20198;-66
2021/05/19 02:20:32;;;;;;;1.87;1.77;;;;;;;8.65;100.00;96710.97;5030796;28;20218;-66
2021/05/19 02:22:58;;;;;;;2.00;1.90;;;;;;;8.55;100.00;96713.28;5031010;28;20190;-66
2021/05/19 02:25:23;;;;;;;1.90;1.80;;;;;;;8.60;100.00;96715.25;5031367;28;20179;-66
2021/05/19 02:27:50;;;;;;;1.70;1.60;;;;;;;8.72;100.00;96716.16;5013449;28;20179;-66
2021/05/19 02:30:18;;;;;;;1.70;1.60;;;;;;;8.83;100.00;96715.44;5031127;28;20635;-66
2021/05/19 02:32:45;;;;;;;1.93;1.77;;;;;;;8.61;100.00;96714.25;5030995;28;20194;-66
2021/05/19 02:35:12;;;;;;;2.10;1.90;;;;;;;8.57;100.00;96715.69;5031344;28;20178;-66
2021/05/19 02:37:38;;;;;;;1.70;1.60;;;;;;;8.61;100.00;96715.03;5012829;28;20186;-66
2021/05/19 02:40:05;;;;;;;1.90;1.80;;;;;;;8.54;100.00;96719.53;5031068;28;20285;-66
2021/05/19 02:42:31;;;;;;;4.00;1.80;;;;;;;8.59;100.00;96713.66;5018711;28;20225;-66
2021/05/19 02:44:56;;;;;;;1.90;1.80;;;;;;;8.55;100.00;96717.72;5031153;28;20233;-66
2021/05/19 02:47:21;;;;;;;1.53;1.53;;;;;;;8.62;100.00;96721.06;5031445;28;20182;-66
2021/05/19 02:49:47;;;;;;;1.70;1.60;;;;;;;8.57;100.00;96726.16;5030525;28;20175;-66
2021/05/19 02:52:13;;;;;;;1.80;1.70;;;;;;;8.61;100.00;96727.31;5031547;28;20528;-66
2021/05/19 02:54:38;;;;;;;2.07;1.60;;;;;;;8.55;100.00;96717.72;5030402;28;20221;-65
2021/05/19 02:57:04;;;;;;;2.40;1.53;;;;;;;8.70;100.00;96726.00;5030694;28;20183;-66
2021/05/19 02:59:29;;;;;;;1.67;1.57;;;;;;;8.58;100.00;96730.34;5030341;28;20284;-66
2021/05/19 03:01:55;;;;;;;2.67;1.90;;;;;;;8.64;100.00;96730.28;5030620;28;20226;-66
2021/05/19 03:04:20;;;;;;;1.57;1.57;;;;;;;8.68;99.83;96733.28;5031289;28;20186;-66
2021/05/19 03:06:46;;;;;;;1.80;1.70;;;;;;;8.57;100.00;96723.53;5029392;28;20817;-66
2021/05/19 03:09:11;;;;;;;1.73;1.63;;;;;;;8.62;100.00;96726.28;5031366;28;20190;-66
2021/05/19 03:11:37;;;;;;;1.80;1.70;;;;;;;8.65;100.00;96731.88;5030209;28;20556;-66
2021/05/19 03:14:04;;;;;;;1.80;1.70;;;;;;;8.65;99.87;96738.91;5030670;28;20198;-65
2021/05/19 03:16:30;;;;;;;1.80;1.70;;;;;;;8.57;100.00;96732.16;5030525;28;20658;-66
2021/05/19 03:18:56;;;;;;;1.80;1.70;;;;;;;8.63;99.81;96736.53;5013235;28;20600;-66
2021/05/19 03:21:22;;;;;;;1.47;1.43;;;;;;;8.71;99.96;96736.25;5030900;28;20247;-66
2021/05/19 03:23:48;;;;;;;2.90;1.40;;;;;;;8.59;100.00;96734.53;5029655;28;20265;-66
2021/05/19 03:26:13;;;;;;;1.70;1.60;;;;;;;8.55;100.00;96742.03;5030784;28;20278;-66
2021/05/19 03:28:40;;;;;;;1.50;1.40;;;;;;;8.59;100.00;96740.56;5030125;28;20187;-66
2021/05/19 03:31:06;;;;;;;1.60;1.50;;;;;;;8.55;100.00;96741.22;5030960;28;20191;-66
2021/05/19 03:33:31;;;;;;;1.60;1.50;;;;;;;8.54;100.00;96745.66;5030191;28;20205;-66
2021/05/19 03:35:57;;;;;;;1.50;1.50;;;;;;;8.57;100.00;96745.22;5030385;28;20190;-66
2021/05/19 03:38:23;;;;;;;2.30;1.67;;;;;;;8.58;100.00;96752.03;5030699;28;20186;-66
2021/05/19 03:40:48;;;;;;;2.37;1.60;;;;;;;8.59;100.00;96753.63;5014083;28;20313;-66
2021/05/19 03:43:14;;;;;;;2.37;1.60;;;;;;;8.57;100.00;96758.28;5034145;28;20590;-66
2021/05/19 03:45:40;;;;;;;1.50;1.50;;;;;;;8.53;100.00;96757.09;5033944;28;20205;-66
2021/05/19 03:48:06;;;;;;;1.50;1.50;;;;;;;8.58;100.00;96754.63;5034285;28;20191;-66
2021/05/19 03:50:33;;;;;;;1.63;1.53;;;;;;;8.52;100.00;96757.34;5033517;28;20222;-66
2021/05/19 03:53:01;;;;;;;1.63;1.53;;;;;;;8.57;99.58;96760.09;5017359;28;20184;-66
2021/05/19 03:55:27;;;;;;;1.70;1.60;;;;;;;8.57;99.97;96767.94;5034611;28;20218;-66
2021/05/19 03:57:53;;;;;;;1.30;1.30;;;;;;;8.65;99.70;96770.25;5033760;28;20296;-65
2021/05/19 04:00:22;;;;;;;1.50;1.50;;;;;;;8.74;98.85;96769.81;5034311;28;20662;-66
2021/05/19 04:02:50;;;;;;;2.00;1.80;;;;;;;8.72;98.53;96763.97;5012323;28;20235;-66
2021/05/19 04:05:25;;;;;;;1.40;1.40;;;;;;;8.67;98.51;96770.88;5014631;28;20202;-66
2021/05/19 04:07:52;;;;;;;1.67;1.57;;;;;;;8.67;98.64;96771.66;5013143;28;20228;-66
2021/05/19 04:10:18;;;;;;;2.23;1.60;;;;;;;8.59;98.92;96774.53;5014461;28;20271;-66
2021/05/19 04:12:44;;;;;;;1.90;1.80;;;;;;;8.73;98.18;96776.03;5013618;28;20688;-66
2021/05/19 04:15:10;;;;;;;2.17;1.97;;;;;;;8.70;98.42;96776.44;5014023;28;20636;-66
2021/05/19 04:17:36;;;;;;;1.77;1.67;;;;;;;8.65;98.48;96778.91;5013499;28;20237;-66
2021/05/19 04:20:03;;;;;;;1.60;1.50;;;;;;;8.66;98.10;96787.53;5013974;28;20644;-66
2021/05/19 04:22:28;;;;;;;2.33;1.73;;;;;;;8.77;98.25;96787.66;5013482;28;20656;-66
2021/05/19 04:24:54;;;;;;;1.60;1.50;;;;;;;8.79;98.49;96784.03;5013598;28;20249;-66
2021/05/19 04:27:19;;;;;;;1.87;1.70;;;;;;;8.76;98.53;96791.28;5013902;28;20176;-66
2021/05/19 04:29:44;;;;;;;1.53;1.43;;;;;;;8.75;98.93;96794.88;5012917;28;20183;-66
2021/05/19 04:32:10;;;;;;;1.50;1.50;;;;;;;8.76;98.50;96791.28;4996188;28;20615;-66
2021/05/19 04:34:38;;;;;;;1.87;1.77;;;;;;;8.70;98.29;96799.16;5013135;28;20211;-65
2021/05/19 04:37:05;;;;;;;1.53;1.50;;;;;;;8.72;98.45;96803.16;5013992;28;20229;-65
2021/05/19 04:39:31;;;;;;;1.63;1.53;;;;;;;8.85;98.20;96799.66;4995949;28;20294;-65
2021/05/19 04:41:56;;;;;;;2.10;2.00;;;;;;;8.85;97.71;96797.03;5013816;28;20258;-65
2021/05/19 04:44:22;;;;;;;1.80;1.70;;;;;;;8.85;97.16;96804.88;5013846;28;20211;-65
2021/05/19 04:46:47;;;;;;;1.37;1.37;;;;;;;8.84;97.34;96799.84;5012528;28;20183;-65
2021/05/19 04:49:13;;;;;;;1.93;1.73;;;;;;;8.98;96.53;96804.75;5013920;28;20219;-66
2021/05/19 04:51:38;;;;;;;2.10;2.00;;;;;;;9.00;96.99;96815.00;4994547;28;20226;-66
2021/05/19 04:54:04;;;;;;;1.80;1.70;;;;;;;8.86;98.62;96811.69;4995999;28;20188;-66
2021/05/19 04:56:29;;;;;;;2.00;1.90;;;;;;;8.74;99.90;96811.59;5013361;28;20183;-65
2021/05/19 04:58:55;;;;;;;1.67;1.57;;;;;;;8.65;100.00;96802.41;5012488;28;20686;-66
2021/05/19 05:01:20;;;;;;;1.83;1.73;;;;;;;8.70;100.00;96812.22;5020477;28;20254;-66
2021/05/19 05:03:45;;;;;;;1.90;1.80;;;;;;;8.76;100.00;96813.97;5032626;28;20195;-66
2021/05/19 05:06:11;;;;;;;2.00;1.90;;;;;;;8.71;100.00;96817.25;5033355;28;20183;-65
2021/05/19 05:08:37;;;;;;;2.13;1.97;;;;;;;8.75;100.00;96820.22;5031792;28;20190;-66
2021/05/19 05:11:02;;;;;;;1.63;1.53;;;;;;;8.73;100.00;96823.06;5032883;28;20273;-65
2021/05/19 05:13:28;;;;;;;1.90;1.80;;;;;;;8.88;100.00;96824.53;5033024;28;20193;-65
2021/05/19 05:15:53;;;;;;;1.90;1.80;;;;;;;8.86;100.00;96822.13;5031767;28;20185;-66
2021/05/19 05:18:19;;;;;;;1.87;1.77;;;;;;;8.90;100.00;96828.56;5032709;28;20213;-65
2021/05/19 05:20:45;;;;;;;2.57;2.37;;;;;;;9.00;100.00;96830.66;5013807;28;20258;-65
2021/05/19 05:23:11;;;;;;;1.90;1.80;;;;;;;9.09;99.55;96830.16;5032938;28;20757;-65
2021/05/19 05:25:36;;;;;;;2.10;2.00;;;;;;;9.20;98.80;96833.88;5031961;28;20273;-66
2021/05/19 05:28:02;;;;;;;2.17;2.07;;;;;;;9.17;98.51;96832.53;5032685;28;20197;-66
2021/05/19 05:30:27;;;;;;;2.07;1.97;;;;;;;9.21;98.99;96832.06;5032821;28;20179;-66
2021/05/19 05:32:53;;;;;;;1.90;1.80;;;;;;;9.36;98.72;96845.63;5032042;28;20769;-66
2021/05/19 05:35:18;;;;;;;1.90;1.80;;;;;;;9.57;97.86;96848.59;5032543;28;20265;-67
2021/05/19 05:37:44;;;;;;;4.67;1.93;;;;;;;9.69;97.00;96851.28;5031771;28;20192;-66
2021/05/19 05:40:10;;;;;;;1.90;1.80;;;;;;;9.70;96.59;96846.84;5032156;28;20602;-66
2021/05/19 05:42:36;;;;;;;1.87;1.77;;;;;;;9.84;96.45;96843.06;5031798;28;20199;-66
2021/05/19 05:45:03;;;;;;;2.50;2.30;;;;;;;9.84;96.23;96835.22;5031758;28;20274;-66
2021/05/19 05:47:28;;;;;;;2.10;2.00;;;;;;;10.00;95.59;96842.44;5032443;28;20198;-66
2021/05/19 05:49:54;;;;;;;2.57;2.00;;;;;;;10.01;95.75;96849.28;5031288;28;20179;-66
2021/05/19 05:52:19;;;;;;;2.37;2.17;;;;;;;9.95;94.21;96844.94;5032417;28;20589;-65
2021/05/19 05:54:45;;;;;;;2.50;2.30;;;;;;;10.07;93.77;96842.38;5031721;28;20535;-66
2021/05/19 05:57:10;;;;;;;2.40;2.20;;;;;;;10.10;91.21;96847.16;5032107;28;20187;-66
2021/05/19 05:59:36;;;;;;;2.10;2.00;;;;;;;10.30;91.78;96852.97;5031620;28;20220;-67
2021/05/19 06:02:02;;;;;;;2.07;1.97;;;;;;;10.35;92.50;96847.84;5032234;28;20234;-66
2021/05/19 06:04:27;;;;;;;2.40;2.30;;;;;;;10.52;91.57;96855.88;5030698;28;20174;-66
2021/05/19 06:06:54;;;;;;;2.60;2.40;;;;;;;10.60;91.07;96853.72;5030483;28;20818;-67
2021/05/19 06:09:20;;;;;;;2.50;2.30;;;;;;;10.77;89.59;96859.91;5031983;28;20202;-70
2021/05/19 06:11:45;;;;;;;3.13;2.67;;;;;;;10.78;88.29;96858.91;5031088;28;20187;-68
2021/05/19 06:14:11;;;;;;;3.83;2.73;;;;;;;10.72;89.10;96854.56;5032272;28;20194;-67
2021/05/19 06:16:36;;;;;;;2.90;2.70;;;;;;;10.72;87.88;96856.38;5030863;28;20178;-68
2021/05/19 06:19:03;;;;;;;2.30;2.20;;;;;;;10.56;87.23;96862.25;5031341;28;20664;-67
2021/05/19 06:21:28;;;;;;;4.77;2.40;;;;;;;10.55;87.33;96861.47;5013150;28;20278;-67
2021/05/19 06:23:54;;;;;;;3.13;2.83;;;;;;;10.41;87.77;96866.09;5031052;28;20270;-67
2021/05/19 06:26:19;;;;;;;3.37;2.30;;;;;;;10.46;88.27;96859.41;5031743;28;20198;-66
2021/05/19 06:28:44;;;;;;;2.63;2.43;;;;;;;10.63;87.90;96860.34;5030265;28;20192;-67
2021/05/19 06:31:10;;;;;;;2.10;2.00;;;;;;;10.68;87.91;96863.91;5014041;28;20190;-67
2021/05/19 06:33:35;;;;;;;2.53;2.30;;;;;;;10.72;87.76;96857.16;5031271;28;20186;-68
2021/05/19 06:36:01;;;;;;;2.33;2.23;;;;;;;10.88;86.89;96868.00;5031022;28;20647;-66
2021/05/19 06:38:27;;;;;;;2.40;2.30;;;;;;;10.88;86.03;96866.19;5031894;28;20652;-66
2021/05/19 06:40:52;;;;;;;2.53;2.40;;;;;;;10.79;86.29;96873.59;5031108;28;20266;-66
2021/05/19 06:43:18;;;;;;;3.13;2.30;;;;;;;10.84;86.61;96867.69;5033228;28;20270;-68
2021/05/19 06:45:43;;;;;;;2.70;2.50;;;;;;;10.95;86.35;96874.75;5030465;28;20217;-68
2021/05/19 06:48:09;;;;;;;3.03;2.37;;;;;;;11.01;85.62;96873.06;5013555;28;20217;-68
2021/05/19 06:50:34;;;;;;;2.60;2.40;;;;;;;11.02;84.22;96872.84;5030303;28;20194;-67
2021/05/19 06:53:00;;;;;;;2.90;2.60;;;;;;;11.23;86.75;96868.84;5030990;28;20201;-67
2021/05/19 06:55:26;;;;;;;2.90;2.70;;;;;;;11.44;84.50;96868.28;5030673;28;20210;-68
2021/05/19 06:57:51;;;;;;;2.57;2.40;;;;;;;11.55;83.69;96874.53;5030176;28;20190;-67
2021/05/19 07:00:17;;;;;;;2.30;2.10;;;;;;;11.82;82.09;96878.28;5031195;28;20297;-67
2021/05/19 07:02:43;;;;;;;3.20;2.90;;;;;;;11.93;80.66;96881.91;5012223;28;20234;-68
2021/05/19 07:05:09;;;;;;;15.03;6.20;;;;;;;12.17;79.77;96875.56;5030823;28;20706;-67
2021/05/19 07:07:35;;;;;;;17.73;7.20;;;;;;;12.49;78.66;96874.06;5012723;28;20575;-67
2021/05/19 07:10:01;;;;;;;4.77;2.80;;;;;;;12.53;76.37;96865.72;5030785;28;20213;-67
2021/05/19 07:12:26;;;;;;;3.77;3.07;;;;;;;12.57;76.84;96874.72;5031623;28;20194;-66
2021/05/19 07:14:59;;;;;;;2.87;2.67;;;;;;;12.73;76.92;96880.00;5030099;28;20179;-67
2021/05/19 07:17:24;;;;;;;3.33;2.33;;;;;;;12.79;75.44;96880.88;5035225;28;20173;-67
2021/05/19 07:19:50;;;;;;;2.40;2.20;;;;;;;12.93;74.89;96873.50;5033732;28;20203;-66
2021/05/19 07:22:16;;;;;;;1.90;1.80;;;;;;;13.06;74.32;96875.78;5034939;28;20190;-66
2021/05/19 07:24:41;;;;;;;2.00;1.90;;;;;;;13.06;73.65;96876.59;5034281;28;20193;-67
2021/05/19 07:27:07;;;;;;;1.90;1.80;;;;;;;13.08;73.55;96871.88;5035580;28;20181;-66
2021/05/19 07:29:32;;;;;;;4.63;2.00;;;;;;;13.19;73.86;96872.88;5025889;28;20654;-66
2021/05/19 07:31:59;;;;;;;1.77;1.70;;;;;;;13.40;73.12;96869.50;5026691;28;20190;-66
2021/05/19 07:34:25;;;;;;;2.83;1.73;;;;;;;13.70;70.83;96866.47;5017377;28;20228;-65
2021/05/19 07:36:51;;;;;;;2.13;2.03;;;;;;;13.32;68.62;96870.69;5034077;28;20289;-65
2021/05/19 07:39:18;;;;;;;2.80;1.50;;;;;;;14.13;68.27;96863.03;5034756;28;20267;-66
2021/05/19 07:41:43;;;;;;;2.60;1.90;;;;;;;13.91;71.08;96867.53;5034049;28;20628;-66
2021/05/19 07:44:08;;;;;;;3.10;1.80;;;;;;;13.55;76.73;96888.13;5034816;28;20209;-65
2021/05/19 07:46:34;;;;;;;2.30;2.10;;;;;;;12.25;80.83;96883.09;5034070;28;20229;-67
2021/05/19 07:49:01;;;;;;;2.00;1.90;;;;;;;11.52;86.15;96885.50;5034177;28;20182;-65
2021/05/19 07:51:27;;;;;;;2.20;2.10;;;;;;;11.13;91.72;96893.03;5034841;28;20293;-66
2021/05/19 07:53:54;;;;;;;2.40;2.20;;;;;;;10.79;93.47;96891.97;5033926;28;20269;-67
2021/05/19 07:56:28;;;;;;;3.40;2.20;;;;;;;10.65;94.50;96894.97;5034747;28;20266;-65
2021/05/19 08:03:53;;;;;;;2.83;2.63;;;;;;;10.40;100.00;96888.09;5033585;28;20195;-66
2021/05/19 08:06:20;;;;;;;3.13;2.57;;;;;;;10.34;99.60;96894.22;5034298;28;20648;-65
2021/05/19 08:08:46;;;;;;;2.93;2.73;;;;;;;10.28;97.70;96899.53;5033077;28;20655;-66
2021/05/19 08:11:11;;;;;;;2.67;2.47;;;;;;;10.23;95.45;96900.22;5033997;28;20191;-65
2021/05/19 08:13:40;;;;;;;2.87;2.67;;;;;;;10.24;95.54;96887.91;5033740;28;20202;-66
2021/05/19 08:16:09;;;;;;;4.03;3.33;;;;;;;10.17;97.08;96881.94;5034022;28;20190;-65
2021/05/19 08:18:35;;;;;;;3.93;2.73;;;;;;;10.37;96.23;96887.72;5033862;28;20194;-65
2021/05/19 08:21:01;;;;;;;2.97;2.63;;;;;;;10.53;96.23;96891.56;5033112;28;20195;-65
2021/05/19 08:23:26;;;;;;;2.77;2.57;;;;;;;10.70;93.04;96884.66;5034233;28;20316;-65
2021/05/19 08:25:52;;;;;;;2.63;2.43;;;;;;;11.00;95.15;96888.00;5033332;28;20642;-66
2021/05/19 08:28:17;;;;;;;3.17;2.70;;;;;;;11.15;94.52;96880.47;5032985;28;20184;-65
2021/05/19 08:30:43;;;;;;;3.60;2.40;;;;;;;11.21;89.71;96873.53;5032741;28;20190;-65
2021/05/19 08:33:08;;;;;;;2.50;2.30;;;;;;;11.26;91.39;96876.25;5033068;28;20193;-66
2021/05/19 08:35:34;;;;;;;2.60;2.50;;;;;;;11.27;89.77;96868.16;5034076;28;20516;-66
2021/05/19 08:37:59;;;;;;;2.37;2.27;;;;;;;11.31;87.01;96875.59;5033216;28;20946;-66
2021/05/19 08:40:27;;;;;;;2.57;2.37;;;;;;;11.38;87.31;96874.44;5033747;28;20635;-65
2021/05/19 08:42:52;;;;;;;2.23;2.10;;;;;;;11.39;89.00;96876.03;5032935;28;20233;-66
2021/05/19 08:45:18;;;;;;;2.37;2.17;;;;;;;11.53;89.48;96873.97;5033520;28;20191;-66
2021/05/19 08:47:44;;;;;;;4.47;2.27;;;;;;;11.49;86.16;96875.44;5033052;28;20182;-66
2021/05/19 08:50:10;;;;;;;2.57;2.37;;;;;;;11.49;84.86;96868.38;5033348;28;20232;-66
2021/05/19 08:52:38;;;;;;;3.23;2.33;;;;;;;11.20;84.52;96866.69;5033634;28;20196;-66
2021/05/19 08:55:15;;;;;;;2.60;2.40;;;;;;;11.35;87.27;96864.41;5033096;28;20195;-66
2021/05/19 08:57:41;;;;;;;2.43;2.23;;;;;;;11.59;87.76;96868.59;5032531;28;20249;-67
2021/05/19 09:00:09;;;;;;;2.13;2.03;;;;;;;11.56;86.57;96876.13;5031823;28;20225;-66
2021/05/19 09:02:35;;;;;;;2.17;2.07;;;;;;;11.76;85.64;96868.69;5033645;28;20222;-66
2021/05/19 09:05:00;;;;;;;3.67;2.27;;;;;;;11.47;83.38;96867.81;5032581;28;20239;-66
2021/05/19 09:07:26;;;;;;;2.10;2.00;;;;;;;11.47;85.32;96859.16;5032411;28;20185;-66
2021/05/19 09:09:51;;;;;;;2.90;1.77;;;;;;;11.46;80.36;96857.56;5032722;28;20213;-66
2021/05/19 09:12:18;;;;;;;2.07;1.70;;;;;;;11.55;76.36;96856.97;5033729;28;20249;-66
2021/05/19 09:15:04;;;;;;;1.80;1.70;;;;;;;11.56;77.75;96860.38;5032333;28;20285;-66
2021/05/19 09:17:32;;;;;;;2.03;1.90;;;;;;;11.88;75.11;96864.22;5032865;28;20178;-66
2021/05/19 09:20:17;;;;;;;1.60;1.50;;;;;;;11.84;72.05;96857.84;5031311;28;20206;-66
2021/05/19 09:22:45;;;;;;;2.17;1.73;;;;;;;12.25;75.49;96862.06;5022362;28;20198;-67
2021/05/19 09:25:18;;;;;;;1.30;1.20;;;;;;;12.24;69.63;96857.03;5032334;28;20190;-66
2021/05/19 09:27:46;;;;;;;1.57;1.37;;;;;;;11.86;70.02;96860.25;5032096;28;20178;-67
2021/05/19 09:30:12;;;;;;;3.50;1.40;;;;;;;11.88;70.44;96860.81;5032900;28;20224;-66
2021/05/19 09:32:39;;;;;;;1.63;1.20;;;;;;;12.13;70.34;96856.06;5033077;28;20186;-66
2021/05/19 09:35:07;;;;;;;2.50;1.13;;;;;;;12.37;67.47;96852.28;5031780;28;20175;-66
2021/05/19 09:37:33;;;;;;;1.30;1.20;;;;;;;12.49;66.33;96855.66;5033206;28;20182;-67
2021/05/19 09:39:59;;;;;;;1.10;1.10;;;;;;;12.65;67.20;96851.44;5031864;28;20558;-67
2021/05/19 09:42:37;;;;;;;1.10;1.10;;;;;;;12.49;62.66;96855.66;5032917;28;20179;-67
2021/05/19 09:45:23;;;;;;;2.60;1.17;;;;;;;12.43;62.84;96856.59;5013980;28;20936;-66
2021/05/19 09:47:51;;;;;;;1.33;1.00;;;;;;;12.42;62.50;96857.66;5032168;28;20186;-66
2021/05/19 09:50:37;;;;;;;1.80;0.90;;;;;;;12.43;63.06;96859.22;5032487;28;20213;-66
2021/05/19 09:53:05;;;;;;;0.90;0.90;;;;;;;12.61;64.17;96863.47;5031527;28;20174;-65
2021/05/19 09:55:31;;;;;;;0.93;0.93;;;;;;;12.75;62.60;96856.91;5032432;28;20183;-65
2021/05/19 09:57:57;;;;;;;0.90;0.90;;;;;;;12.73;59.78;96856.31;5031456;28;20183;-65
2021/05/19 10:00:25;;;;;;;1.23;0.90;;;;;;;12.61;60.31;96860.84;5031760;28;20206;-66
2021/05/19 10:02:52;;;;;;;0.90;0.90;;;;;;;12.95;60.66;96856.41;5031243;28;20194;-67
2021/05/19 10:05:28;;;;;;;1.27;1.10;;;;;;;12.71;58.63;96842.59;5016326;28;20178;-66
2021/05/19 10:07:55;;;;;;;1.00;1.00;;;;;;;12.59;61.82;96862.94;5030552;28;20650;-66
2021/05/19 10:10:24;;;;;;;0.90;0.90;;;;;;;12.93;61.24;96846.13;5032126;28;20239;-66
2021/05/19 10:12:50;;;;;;;0.80;0.80;;;;;;;13.07;60.37;96848.44;5031281;28;20274;-66
2021/05/19 10:15:23;;;;;;;0.90;0.90;;;;;;;13.15;60.44;96840.94;5031839;28;20191;-66
2021/05/19 10:18:01;;;;;;;1.33;1.20;;;;;;;12.84;61.15;96844.94;5030553;28;20194;-66
2021/05/19 10:20:28;;;;;;;1.30;1.20;;;;;;;13.03;57.61;96844.69;5016187;28;20194;-66
2021/05/19 10:22:54;;;;;;;0.73;0.73;;;;;;;12.68;55.82;96842.28;5031467;28;20635;-67
2021/05/19 10:25:41;;;;;;;2.57;0.93;;;;;;;12.86;55.95;96840.25;5031703;28;20600;-66
2021/05/19 10:28:18;;;;;;;0.80;0.80;;;;;;;12.91;57.36;96837.69;5026117;28;20268;-67
2021/05/19 10:30:45;;;;;;;0.77;0.77;;;;;;;13.01;55.59;96836.25;5015164;28;20217;-68
2021/05/19 10:33:29;;;;;;;0.60;0.60;;;;;;;12.92;54.49;96830.59;5031474;28;20198;-67
2021/05/19 10:35:55;;;;;;;0.80;0.80;;;;;;;13.03;54.42;96832.34;5026792;28;20178;-67
2021/05/19 10:38:25;;;;;;;0.60;0.60;;;;;;;13.09;50.39;96827.94;5031616;28;20578;-67
2021/05/19 10:40:55;;;;;;;1.13;0.50;;;;;;;13.28;45.53;96816.94;5030378;28;20210;-67
2021/05/19 10:43:41;;;;;;;0.50;0.50;;;;;;;13.27;45.84;96825.06;5031456;28;20205;-67
2021/05/19 10:46:06;;;;;;;2.53;0.60;;;;;;;13.38;47.25;96818.09;5025828;28;20232;-66
2021/05/19 10:48:34;;;;;;;0.70;0.70;;;;;;;13.36;49.69;96822.81;5032395;28;20574;-66
2021/05/19 10:51:44;;;;;;;0.77;0.60;;;;;;;13.40;52.57;96821.28;5030107;28;20285;-67
2021/05/19 11:00:21;;;;;;;0.60;0.60;;;;;;;13.80;48.54;96813.13;4912100;29;20217;-67
2021/05/19 11:02:52;;;;;;;1.07;0.57;;;;;;;13.67;47.81;96806.38;5019794;28;20214;-67
2021/05/19 11:05:19;;;;;;;0.77;0.67;;;;;;;13.71;46.95;96802.19;5021113;28;20189;-66
2021/05/19 11:08:13;;;;;;;0.60;0.60;;;;;;;13.66;49.14;96800.31;5029433;28;20208;-67
2021/05/19 11:10:42;;;;;;;0.50;0.50;;;;;;;13.76;47.82;96798.84;5013555;28;20186;-67
2021/05/19 11:13:08;;;;;;;0.93;0.70;;;;;;;13.86;45.81;96801.59;5028812;28;20175;-67
2021/05/19 11:21:19;;;;;;;1.17;0.70;;;;;;;13.61;47.67;96799.44;5031006;28;20213;-65
2021/05/19 11:24:07;;;;;;;2.30;0.60;;;;;;;13.85;45.81;96792.09;5030069;28;20194;-66
2021/05/19 11:26:44;;;;;;;0.90;0.60;;;;;;;14.08;45.92;96789.97;5030761;28;20183;-66
2021/05/19 11:29:11;;;;;;;0.67;0.67;;;;;;;14.03;46.60;96781.22;5016898;28;20217;-66
2021/05/19 11:31:43;;;;;;;0.93;0.70;;;;;;;13.86;49.21;96786.59;5030799;28;20186;-66
2021/05/19 11:34:10;;;;;;;1.97;0.90;;;;;;;13.87;51.04;96777.66;5030798;28;20281;-66
2021/05/19 11:36:44;;;;;;;1.83;1.10;;;;;;;14.02;51.12;96783.06;5030187;28;20194;-66
2021/05/19 11:39:37;;;;;;;3.80;1.87;;;;;;;14.22;49.05;96774.53;5016010;28;20212;-66
2021/05/19 11:42:25;;;;;;;6.43;2.37;;;;;;;14.44;42.53;96777.94;5029933;28;20668;-66
2021/05/19 11:44:55;;;;;;;7.93;3.10;;;;;;;14.62;45.35;96768.06;5028927;28;20193;-67
2021/05/19 11:47:37;;;;;;;0.90;0.90;;;;;;;14.02;49.91;96769.09;5030614;28;20186;-66
2021/05/19 11:50:08;;;;;;;0.60;0.60;;;;;;;14.27;50.30;96774.59;5029318;28;20202;-67
2021/05/19 11:52:54;;;;;;;1.27;1.00;;;;;;;14.09;49.83;96772.31;5030200;28;20179;-67
2021/05/19 11:55:35;;;;;;;0.70;0.70;;;;;;;14.05;49.82;96773.84;4999207;28;20265;-66